createdAt,value
2019-03-23T00:01:01.909Z,14.70
2019-03-23T00:03:32.862Z,12.65
2019-03-23T00:06:03.919Z,13.10
2019-03-23T00:08:34.931Z,14.25
2019-03-23T00:11:05.865Z,13.38
2019-03-23T00:13:36.774Z,13.60
2019-03-23T00:16:07.774Z,13.50
2019-03-23T00:18:38.753Z,13.10
2019-03-23T00:21:09.854Z,12.37
2019-03-23T00:23:40.965Z,12.75
2019-03-23T00:26:13.319Z,14.65
2019-03-23T00:28:44.609Z,12.30
2019-03-23T00:31:15.567Z,14.85
2019-03-23T00:33:46.543Z,13.50
2019-03-23T00:36:17.568Z,12.78
2019-03-23T00:38:48.516Z,13.40
2019-03-23T00:41:19.504Z,11.48
2019-03-23T00:43:50.488Z,13.05
2019-03-23T00:46:21.379Z,13.10
2019-03-23T00:48:52.371Z,12.75
2019-03-23T00:51:23.465Z,14.47
2019-03-23T00:53:54.493Z,14.05
2019-03-23T00:56:26.474Z,14.20
2019-03-23T00:58:57.574Z,13.90
2019-03-23T01:01:28.518Z,13.28
2019-03-23T01:03:59.549Z,15.20
2019-03-23T01:06:30.478Z,13.45
2019-03-23T01:09:01.433Z,13.90
2019-03-23T01:11:32.362Z,12.73
2019-03-23T01:14:03.302Z,14.05
2019-03-23T01:16:34.311Z,14.30
2019-03-23T01:19:05.250Z,13.10
2019-03-23T01:21:36.253Z,13.10
2019-03-23T01:24:07.261Z,13.75
2019-03-23T01:26:38.292Z,13.15
2019-03-23T01:29:09.267Z,13.62
2019-03-23T01:31:40.227Z,14.03
2019-03-23T01:34:11.326Z,13.80
2019-03-23T01:36:42.321Z,13.62
2019-03-23T01:39:13.295Z,14.60
2019-03-23T01:41:44.314Z,15.40
2019-03-23T01:44:15.393Z,14.05
2019-03-23T01:46:46.370Z,15.10
2019-03-23T01:49:17.365Z,13.43
2019-03-23T01:51:48.818Z,15.65
2019-03-23T01:54:19.781Z,13.95
2019-03-23T01:56:50.787Z,12.63
2019-03-23T01:59:21.737Z,12.63
2019-03-23T02:01:52.731Z,13.90
2019-03-23T02:04:23.725Z,14.73
2019-03-23T02:06:54.730Z,15.15
2019-03-23T02:09:25.737Z,14.53
2019-03-23T02:11:56.715Z,15.10
2019-03-23T02:14:27.701Z,13.60
2019-03-23T02:16:58.754Z,15.43
2019-03-23T02:19:29.670Z,14.47
2019-03-23T02:22:00.993Z,14.68
2019-03-23T02:24:31.993Z,14.80
2019-03-23T02:27:03.135Z,15.80
2019-03-23T02:29:34.071Z,13.90
2019-03-23T02:32:05.021Z,15.32
2019-03-23T02:34:35.941Z,14.93
2019-03-23T02:37:07.018Z,14.65
2019-03-23T02:39:37.972Z,12.73
2019-03-23T02:42:09.087Z,13.75
2019-03-23T02:44:39.998Z,14.45
2019-03-23T02:47:11.153Z,13.85
2019-03-23T02:49:42.162Z,14.20
2019-03-23T02:52:13.308Z,13.28
2019-03-23T02:54:44.280Z,14.80
2019-03-23T02:57:15.300Z,14.33
2019-03-23T02:59:46.255Z,12.88
2019-03-23T03:02:17.258Z,14.98
2019-03-23T03:04:48.154Z,14.80
2019-03-23T03:07:19.081Z,13.90
2019-03-23T03:09:50.070Z,14.73
2019-03-23T03:12:21.075Z,14.47
2019-03-23T03:14:52.150Z,14.55
2019-03-23T03:17:23.166Z,13.83
2019-03-23T03:19:54.067Z,14.25
2019-03-23T03:22:25.023Z,15.65
2019-03-23T03:24:56.137Z,13.98
2019-03-23T03:27:27.209Z,14.73
2019-03-23T03:29:58.255Z,14.85
2019-03-23T03:32:29.252Z,13.05
2019-03-23T03:35:00.654Z,14.23
2019-03-23T03:37:31.689Z,14.78
2019-03-23T03:40:02.699Z,13.55
2019-03-23T03:42:33.713Z,14.70
2019-03-23T03:45:04.783Z,13.72
2019-03-23T03:47:35.694Z,15.15
2019-03-23T03:50:07.142Z,15.25
2019-03-23T03:52:38.070Z,13.68
2019-03-23T03:55:09.158Z,14.75
2019-03-23T03:57:40.074Z,13.83
2019-03-23T04:00:11.243Z,13.78
2019-03-23T04:02:42.138Z,14.45
2019-03-23T04:05:13.189Z,12.60
2019-03-23T04:07:44.163Z,14.35
2019-03-23T04:10:15.138Z,13.53
2019-03-23T04:12:46.186Z,13.80
2019-03-23T04:15:17.178Z,14.33
2019-03-23T04:17:48.109Z,14.05
2019-03-23T04:20:19.047Z,14.35
2019-03-23T04:22:49.995Z,12.53
2019-03-23T04:25:21.050Z,14.20
2019-03-23T04:27:52.075Z,13.10
2019-03-23T04:30:23.781Z,14.25
2019-03-23T04:32:54.812Z,14.00
2019-03-23T04:35:25.834Z,15.43
2019-03-23T04:37:57.181Z,14.25
2019-03-23T04:40:28.238Z,14.18
2019-03-23T04:42:59.266Z,12.90
2019-03-23T04:45:30.292Z,13.18
2019-03-23T04:48:01.834Z,12.95
2019-03-23T04:50:32.792Z,14.00
2019-03-23T04:53:03.766Z,14.13
2019-03-23T04:55:34.864Z,14.55
2019-03-23T04:58:05.829Z,14.65
2019-03-23T05:00:36.843Z,13.93
2019-03-23T05:03:07.814Z,13.62
2019-03-23T05:05:38.817Z,13.25
2019-03-23T05:08:09.965Z,13.78
2019-03-23T05:10:40.985Z,13.72
2019-03-23T05:13:11.947Z,13.40
2019-03-23T05:15:43.024Z,12.40
2019-03-23T05:18:14.093Z,13.25
2019-03-23T05:20:45.054Z,15.00
2019-03-23T05:23:19.452Z,13.83
2019-03-23T05:25:50.467Z,13.10
2019-03-23T05:28:24.602Z,13.93
2019-03-23T05:30:55.611Z,15.03
2019-03-23T05:33:29.763Z,14.10
2019-03-23T05:36:04.052Z,13.50
2019-03-23T05:38:43.863Z,14.43
2019-03-23T05:41:09.601Z,13.22
2019-03-23T05:43:43.947Z,13.65
2019-03-23T05:46:25.750Z,14.18
2019-03-23T05:49:03.670Z,12.15
2019-03-23T05:51:40.668Z,13.48
2019-03-23T05:54:13.653Z,14.47
2019-03-23T05:56:44.647Z,14.50
2019-03-23T05:59:15.990Z,12.85
2019-03-23T06:01:47.898Z,17.23
2019-03-23T06:04:23.534Z,32.55
2019-03-23T06:06:54.555Z,17.62
2019-03-23T06:09:36.712Z,15.38
2019-03-23T06:12:13.833Z,14.23
2019-03-23T06:14:45.882Z,14.13
2019-03-23T06:17:19.705Z,12.75
2019-03-23T06:20:04.705Z,12.75
2019-03-23T06:22:35.966Z,14.70
2019-03-23T06:25:07.391Z,14.98
2019-03-23T06:27:40.506Z,13.32
2019-03-23T06:30:18.553Z,13.75
2019-03-23T06:32:50.483Z,13.48
2019-03-23T06:35:27.673Z,13.28
2019-03-23T06:38:04.846Z,12.75
2019-03-23T06:40:35.859Z,14.03
2019-03-23T06:43:30.471Z,12.53
2019-03-23T06:46:06.594Z,14.00
2019-03-23T06:48:37.533Z,12.90
2019-03-23T06:51:08.561Z,12.00
2019-03-23T06:53:39.549Z,12.37
2019-03-23T06:56:10.562Z,13.00
2019-03-23T06:58:41.529Z,13.50
2019-03-23T07:01:12.520Z,12.90
2019-03-23T07:03:43.442Z,12.40
2019-03-23T07:06:14.385Z,13.08
2019-03-23T07:08:45.349Z,13.62
2019-03-23T07:11:16.302Z,12.82
2019-03-23T07:13:47.293Z,13.53
2019-03-23T07:16:18.259Z,13.65
2019-03-23T07:18:50.271Z,13.28
2019-03-23T07:21:22.310Z,13.98
2019-03-23T07:23:53.235Z,13.98
2019-03-23T07:26:24.206Z,13.88
2019-03-23T07:28:55.162Z,14.53
2019-03-23T07:31:26.163Z,13.75
2019-03-23T07:33:58.214Z,13.98
2019-03-23T07:36:29.170Z,14.23
2019-03-23T07:39:00.089Z,13.53
2019-03-23T07:41:31.149Z,14.10
2019-03-23T07:44:11.183Z,13.38
2019-03-23T07:46:47.776Z,12.53
2019-03-23T07:49:18.701Z,14.58
2019-03-23T07:51:49.685Z,12.00
2019-03-23T07:54:20.739Z,13.60
2019-03-23T07:56:56.699Z,12.80
2019-03-23T07:59:27.681Z,13.53
2019-03-23T08:02:00.605Z,13.97
2019-03-23T08:04:33.567Z,13.30
2019-03-23T08:07:04.619Z,14.37
2019-03-23T08:09:38.602Z,14.00
2019-03-23T08:12:11.614Z,13.47
2019-03-23T08:14:42.640Z,14.50
2019-03-23T08:17:16.788Z,14.13
2019-03-23T08:19:47.778Z,15.37
2019-03-23T08:22:18.740Z,15.03
2019-03-23T08:24:49.699Z,15.33
2019-03-23T08:27:20.683Z,14.63
2019-03-23T08:29:52.700Z,17.10
2019-03-23T08:32:23.672Z,14.13
2019-03-23T08:34:57.992Z,15.13
2019-03-23T08:37:28.405Z,14.50
2019-03-23T08:39:59.448Z,15.77
2019-03-23T08:42:35.005Z,17.57
2019-03-23T08:45:07.256Z,15.73
2019-03-23T08:47:38.278Z,17.40
2019-03-23T08:50:09.418Z,15.93
2019-03-23T08:52:41.385Z,16.80
2019-03-23T08:55:13.655Z,16.70
2019-03-23T08:57:48.563Z,17.13
2019-03-23T09:00:19.515Z,16.83
2019-03-23T09:02:51.503Z,17.80
2019-03-23T09:05:22.536Z,18.83
2019-03-23T09:07:53.447Z,17.87
2019-03-23T09:10:24.522Z,18.90
2019-03-23T09:12:56.678Z,19.50
2019-03-23T09:15:27.730Z,18.40
2019-03-23T09:17:58.685Z,19.60
2019-03-23T09:20:29.784Z,19.60
2019-03-23T09:23:00.680Z,19.37
2019-03-23T09:25:31.632Z,17.53
2019-03-23T09:28:02.648Z,19.63
2019-03-23T09:30:33.662Z,18.83
2019-03-23T09:33:04.741Z,20.27
2019-03-23T09:35:39.383Z,20.07
2019-03-23T09:38:11.426Z,19.70
2019-03-23T09:40:42.369Z,18.77
2019-03-23T09:43:13.412Z,19.07
2019-03-23T09:45:44.331Z,17.90
2019-03-23T09:48:15.426Z,18.40
2019-03-23T09:50:48.378Z,18.20
2019-03-23T09:53:19.345Z,18.17
2019-03-23T09:55:50.254Z,17.47
2019-03-23T09:58:21.296Z,19.60
2019-03-23T10:00:52.274Z,17.70
2019-03-23T10:03:23.233Z,18.70
2019-03-23T10:05:55.257Z,18.70
2019-03-23T10:08:26.285Z,19.07
2019-03-23T10:10:58.254Z,18.50
2019-03-23T10:13:29.330Z,17.37
2019-03-23T10:16:00.326Z,18.37
2019-03-23T10:18:31.285Z,19.13
2019-03-23T10:21:02.236Z,17.97
2019-03-23T10:23:33.258Z,18.50
2019-03-23T10:26:04.154Z,19.10
2019-03-23T10:28:35.100Z,19.20
2019-03-23T10:31:06.022Z,18.67
2019-03-23T10:33:39.084Z,17.00
2019-03-23T10:36:12.207Z,19.07
2019-03-23T10:38:42.642Z,19.87
2019-03-23T10:41:13.541Z,18.67
2019-03-23T10:43:44.610Z,20.13
2019-03-23T10:46:15.620Z,19.67
2019-03-23T10:48:46.651Z,19.40
2019-03-23T10:51:17.592Z,20.73
2019-03-23T10:53:48.559Z,19.70
2019-03-23T10:56:19.614Z,18.17
2019-03-23T10:58:50.552Z,18.07
2019-03-23T11:01:21.606Z,19.60
2019-03-23T11:03:54.614Z,18.67
2019-03-23T11:06:25.576Z,18.60
2019-03-23T11:08:58.595Z,17.10
2019-03-23T11:11:29.618Z,18.40
2019-03-23T11:14:00.562Z,19.30
2019-03-23T11:16:31.600Z,18.17
2019-03-23T11:19:02.535Z,19.90
2019-03-23T11:21:34.159Z,19.17
2019-03-23T11:24:06.168Z,21.10
2019-03-23T11:26:37.160Z,17.60
2019-03-23T11:29:08.510Z,19.77
2019-03-23T11:31:39.618Z,18.50
2019-03-23T11:34:17.718Z,18.43
2019-03-23T11:36:43.302Z,18.97
2019-03-23T11:39:14.296Z,19.90
2019-03-23T11:41:45.325Z,19.07
2019-03-23T11:44:17.291Z,18.47
2019-03-23T11:46:48.340Z,18.63
2019-03-23T11:49:19.392Z,18.90
2019-03-23T11:51:50.421Z,20.00
2019-03-23T11:54:21.518Z,21.63
2019-03-23T11:56:52.495Z,18.90
2019-03-23T11:59:23.415Z,19.87
2019-03-23T12:01:54.372Z,18.60
2019-03-23T12:04:25.395Z,19.13
2019-03-23T12:06:56.428Z,19.40
2019-03-23T12:09:27.368Z,19.73
2019-03-23T12:11:58.398Z,19.23
2019-03-23T12:14:30.386Z,18.83
2019-03-23T12:17:01.377Z,17.60
2019-03-23T12:19:32.361Z,18.13
2019-03-23T12:22:03.315Z,17.70
2019-03-23T12:24:34.340Z,19.70
2019-03-23T12:27:05.326Z,18.10
2019-03-23T12:29:37.348Z,18.53
2019-03-23T12:32:08.387Z,18.90
2019-03-23T12:34:39.362Z,19.30
2019-03-23T12:37:10.310Z,17.20
2019-03-23T12:39:41.362Z,19.87
2019-03-23T12:42:12.398Z,20.53
2019-03-23T12:44:43.403Z,18.33
2019-03-23T12:47:14.373Z,22.00
2019-03-23T12:49:45.322Z,19.23
2019-03-23T12:52:16.329Z,21.90
2019-03-23T12:54:47.345Z,20.53
2019-03-23T12:57:18.293Z,19.17
2019-03-23T12:59:49.311Z,19.20
2019-03-23T13:02:20.303Z,19.30
2019-03-23T13:04:51.318Z,19.90
2019-03-23T13:07:22.283Z,18.57
2019-03-23T13:09:53.274Z,20.30
2019-03-23T13:12:24.254Z,19.00
2019-03-23T13:14:55.249Z,20.83
2019-03-23T13:17:26.196Z,22.43
2019-03-23T13:19:57.282Z,22.03
2019-03-23T13:22:31.240Z,19.63
2019-03-23T13:25:02.201Z,21.70
2019-03-23T13:27:33.210Z,19.30
2019-03-23T13:30:04.519Z,21.00
2019-03-23T13:32:35.484Z,22.13
2019-03-23T13:35:07.545Z,20.73
2019-03-23T13:37:38.579Z,20.00
2019-03-23T13:40:10.439Z,20.30
2019-03-23T13:42:41.453Z,20.07
2019-03-23T13:45:12.665Z,20.00
2019-03-23T13:47:43.671Z,20.10
2019-03-23T13:50:17.258Z,19.80
2019-03-23T13:52:48.234Z,21.10
2019-03-23T13:55:27.709Z,20.40
2019-03-23T13:58:10.229Z,20.40
2019-03-23T14:00:41.654Z,20.87
2019-03-23T14:03:12.796Z,20.10
2019-03-23T14:05:43.758Z,22.33
2019-03-23T14:08:14.737Z,21.40
2019-03-23T14:10:45.704Z,19.40
2019-03-23T14:13:16.808Z,20.00
2019-03-23T14:15:47.955Z,21.43
2019-03-23T14:18:18.973Z,20.40
2019-03-23T14:20:50.038Z,19.20
2019-03-23T14:23:39.780Z,20.77
2019-03-23T14:26:10.776Z,21.53
2019-03-23T14:28:41.740Z,21.97
2019-03-23T14:31:12.837Z,20.20
2019-03-23T14:33:43.893Z,21.63
2019-03-23T14:36:14.903Z,21.07
2019-03-23T14:38:45.877Z,22.10
2019-03-23T14:41:16.856Z,18.83
2019-03-23T14:43:47.878Z,20.00
2019-03-23T14:46:18.844Z,19.97
2019-03-23T14:48:50.422Z,19.33
2019-03-23T14:51:21.437Z,21.93
2019-03-23T14:53:52.439Z,21.30
2019-03-23T14:56:23.391Z,19.60
2019-03-23T14:58:54.534Z,20.50
2019-03-23T15:01:25.518Z,19.77
2019-03-23T15:03:56.554Z,19.60
2019-03-23T15:06:27.690Z,20.47
2019-03-23T15:08:58.789Z,20.87
2019-03-23T15:11:29.812Z,20.70
2019-03-23T15:14:00.798Z,20.83
2019-03-23T15:16:31.894Z,20.53
2019-03-23T15:19:02.957Z,20.10
2019-03-23T15:21:33.923Z,18.03
2019-03-23T15:24:05.054Z,20.80
2019-03-23T15:26:38.865Z,20.50
2019-03-23T15:29:09.948Z,19.60
2019-03-23T15:31:41.010Z,19.63
2019-03-23T15:34:11.943Z,19.80
2019-03-23T15:36:42.921Z,19.87
2019-03-23T15:39:13.929Z,19.50
2019-03-23T15:41:44.880Z,21.17
2019-03-23T15:44:15.914Z,19.60
2019-03-23T15:46:46.915Z,20.17
2019-03-23T15:49:17.954Z,19.50
2019-03-23T15:51:49.065Z,20.87
2019-03-23T15:54:20.098Z,22.20
2019-03-23T15:56:51.037Z,21.07
2019-03-23T15:59:22.072Z,21.67
2019-03-23T16:01:53.017Z,20.47
2019-03-23T16:04:23.975Z,21.77
2019-03-23T16:06:56.810Z,20.33
2019-03-23T16:09:27.658Z,19.23
2019-03-23T16:11:58.761Z,22.57
2019-03-23T16:14:29.675Z,19.57
2019-03-23T16:17:00.698Z,22.17
2019-03-23T16:19:31.734Z,21.40
2019-03-23T16:22:02.834Z,19.93
2019-03-23T16:24:33.838Z,20.43
2019-03-23T16:27:04.917Z,21.43
2019-03-23T16:29:35.914Z,21.23
2019-03-23T16:32:06.969Z,20.77
2019-03-23T16:34:37.877Z,19.53
2019-03-23T16:37:09.096Z,21.00
2019-03-23T16:39:40.120Z,20.67
2019-03-23T16:42:11.181Z,21.07
2019-03-23T16:44:42.242Z,19.90
2019-03-23T16:47:13.241Z,21.73
2019-03-23T16:49:44.289Z,21.87
2019-03-23T16:52:15.365Z,20.17
2019-03-23T16:54:46.301Z,21.30
2019-03-23T16:57:17.265Z,21.37
2019-03-23T16:59:48.229Z,20.10
2019-03-23T17:02:19.272Z,23.07
2019-03-23T17:04:50.306Z,20.13
2019-03-23T17:07:21.337Z,20.83
2019-03-23T17:09:52.274Z,21.10
2019-03-23T17:12:23.262Z,21.20
2019-03-23T17:14:54.267Z,21.00
2019-03-23T17:17:25.246Z,21.13
2019-03-23T17:19:56.219Z,22.10
2019-03-23T17:22:27.179Z,22.57
2019-03-23T17:24:58.235Z,23.50
2019-03-23T17:27:36.620Z,20.53
2019-03-23T17:30:14.579Z,22.10
2019-03-23T17:32:47.537Z,20.93
2019-03-23T17:35:18.588Z,21.87
2019-03-23T17:37:54.878Z,21.50
2019-03-23T17:40:25.886Z,20.80
2019-03-23T17:43:05.571Z,21.90
2019-03-23T17:45:29.649Z,21.67
2019-03-23T17:48:00.675Z,20.00
2019-03-23T17:50:31.725Z,19.70
2019-03-23T17:53:02.758Z,21.03
2019-03-23T17:55:33.832Z,20.90
2019-03-23T17:58:07.860Z,20.83
2019-03-23T18:00:44.895Z,20.77
2019-03-23T18:03:19.423Z,22.57
2019-03-23T18:05:50.474Z,22.20
2019-03-23T18:08:21.396Z,21.37
2019-03-23T18:10:55.391Z,19.93
2019-03-23T18:13:26.294Z,20.10
2019-03-23T18:15:58.326Z,18.77
2019-03-23T18:18:29.396Z,21.77
2019-03-23T18:21:01.435Z,22.63
2019-03-23T18:23:32.475Z,22.10
2019-03-23T18:26:03.520Z,20.20
2019-03-23T18:28:34.606Z,20.13
2019-03-23T18:31:07.592Z,23.43
2019-03-23T18:33:49.807Z,22.67
2019-03-23T18:36:21.839Z,19.80
2019-03-23T18:38:57.287Z,18.90
2019-03-23T18:41:29.364Z,20.50
2019-03-23T18:44:00.373Z,19.83
2019-03-23T18:46:36.670Z,20.87
2019-03-23T18:49:28.036Z,22.07
2019-03-23T18:51:59.034Z,20.97
2019-03-23T18:54:30.120Z,22.27
2019-03-23T18:57:05.386Z,23.40
2019-03-23T18:59:36.410Z,24.57
2019-03-23T19:02:13.241Z,25.70
2019-03-23T19:04:44.296Z,25.80
2019-03-23T19:07:16.400Z,24.73
2019-03-23T19:09:49.729Z,24.40
2019-03-23T19:12:20.869Z,23.03
2019-03-23T19:14:51.901Z,23.37
2019-03-23T19:17:25.486Z,25.47
2019-03-23T19:19:56.555Z,23.67
2019-03-23T19:22:27.526Z,22.60
2019-03-23T19:25:00.596Z,22.50
2019-03-23T19:27:42.894Z,25.10
2019-03-23T19:30:14.348Z,24.00
2019-03-23T19:32:46.403Z,25.30
2019-03-23T19:35:19.421Z,30.13
2019-03-23T19:37:50.390Z,27.40
2019-03-23T19:40:21.393Z,32.83
2019-03-23T19:42:55.828Z,34.50
2019-03-23T19:45:27.806Z,29.53
2019-03-23T19:47:58.812Z,30.70
2019-03-23T19:50:29.870Z,29.17
2019-03-23T19:53:00.793Z,32.13
2019-03-23T19:55:31.832Z,33.13
2019-03-23T19:58:07.697Z,33.97
2019-03-23T20:00:38.741Z,38.30
2019-03-23T20:03:09.814Z,43.23
2019-03-23T20:05:40.866Z,39.33
2019-03-23T20:08:15.589Z,41.10
2019-03-23T20:10:46.718Z,37.30
2019-03-23T20:13:17.674Z,35.47
2019-03-23T20:15:48.681Z,38.83
2019-03-23T20:18:19.758Z,35.97
2019-03-23T20:20:50.766Z,30.63
2019-03-23T20:23:21.832Z,30.17
2019-03-23T20:25:52.838Z,27.57
2019-03-23T20:28:29.058Z,29.00
2019-03-23T20:31:00.038Z,26.00
2019-03-23T20:33:30.990Z,25.37
2019-03-23T20:36:02.042Z,24.70
2019-03-23T20:38:33.017Z,83.85
2019-03-23T20:41:10.880Z,97.07
2019-03-23T20:43:41.935Z,25.03
2019-03-23T20:46:13.256Z,27.15
2019-03-23T20:48:44.773Z,23.20
2019-03-23T20:51:15.886Z,23.13
2019-03-23T20:53:47.020Z,23.60
2019-03-23T20:56:17.989Z,23.52
2019-03-23T20:58:48.953Z,23.05
2019-03-23T21:01:19.934Z,24.63
2019-03-23T21:03:50.885Z,22.95
2019-03-23T21:06:21.935Z,24.47
2019-03-23T21:08:57.720Z,26.48
2019-03-23T21:11:28.774Z,24.45
2019-03-23T21:13:59.777Z,24.02
2019-03-23T21:16:30.846Z,24.15
2019-03-23T21:19:02.910Z,24.47
2019-03-23T21:21:33.997Z,22.70
2019-03-23T21:24:05.069Z,23.47
2019-03-23T21:26:36.051Z,24.40
2019-03-23T21:29:11.527Z,26.17
2019-03-23T21:31:42.525Z,24.80
2019-03-23T21:34:17.004Z,25.97
2019-03-23T21:36:48.079Z,24.95
2019-03-23T21:39:25.255Z,24.57
2019-03-23T21:41:56.295Z,26.05
2019-03-23T21:44:31.205Z,22.30
2019-03-23T21:47:02.537Z,25.05
2019-03-23T21:49:37.752Z,22.60
2019-03-23T21:52:08.886Z,22.45
2019-03-23T21:54:40.851Z,24.45
2019-03-23T21:57:19.946Z,23.25
2019-03-23T21:59:59.957Z,25.62
2019-03-23T22:02:30.999Z,25.43
2019-03-23T22:05:02.208Z,24.98
2019-03-23T22:07:33.316Z,25.00
2019-03-23T22:10:04.501Z,26.73
2019-03-23T22:12:38.563Z,25.97
2019-03-23T22:15:10.846Z,26.60
2019-03-23T22:17:41.809Z,29.42
2019-03-23T22:20:12.785Z,25.12
2019-03-23T22:22:52.935Z,27.37
2019-03-23T22:25:27.563Z,25.97
2019-03-23T22:27:58.767Z,26.07
2019-03-23T22:30:30.251Z,28.12
2019-03-23T22:33:01.171Z,27.02
2019-03-23T22:35:33.207Z,28.87
2019-03-23T22:38:10.602Z,27.07
2019-03-23T22:40:45.103Z,29.32
2019-03-23T22:43:16.134Z,27.98
2019-03-23T22:45:50.891Z,26.85
2019-03-23T22:48:29.964Z,30.95
2019-03-23T22:51:04.488Z,26.70
2019-03-23T22:53:35.549Z,26.25
2019-03-23T22:56:12.253Z,29.23
2019-03-23T22:58:52.142Z,29.30
2019-03-23T23:01:23.146Z,30.48
2019-03-23T23:03:56.202Z,29.75
2019-03-23T23:06:27.309Z,29.23
2019-03-23T23:09:00.330Z,30.92
2019-03-23T23:11:34.655Z,29.12
2019-03-23T23:14:11.522Z,30.80
2019-03-23T23:17:04.777Z,30.62
2019-03-23T23:19:41.697Z,32.58
2019-03-23T23:22:12.742Z,31.52
2019-03-23T23:24:48.777Z,32.75
2019-03-23T23:27:23.070Z,34.58
2019-03-23T23:29:54.102Z,29.65
2019-03-23T23:32:25.142Z,33.42
2019-03-23T23:34:56.142Z,32.25
2019-03-23T23:37:27.054Z,30.55
2019-03-23T23:39:58.068Z,34.23
2019-03-23T23:42:29.045Z,32.73
2019-03-23T23:45:00.065Z,33.95
2019-03-23T23:47:31.111Z,32.60
2019-03-23T23:50:02.061Z,32.63
2019-03-23T23:52:33.091Z,31.87
2019-03-23T23:55:04.731Z,33.53
2019-03-23T23:57:35.710Z,34.00
